createdAt,value
2023-05-07T00:01:36.439Z,57.08
2023-05-07T00:04:06.505Z,53.33
2023-05-07T00:06:35.285Z,53.03
2023-05-07T00:09:02.112Z,58.00
2023-05-07T00:11:29.169Z,53.75
2023-05-07T00:13:58.669Z,55.05
2023-05-07T00:16:25.314Z,59.22
2023-05-07T00:18:52.042Z,56.05
2023-05-07T00:21:18.493Z,53.95
2023-05-07T00:23:48.675Z,56.28
2023-05-07T00:26:15.110Z,52.17
2023-05-07T00:28:48.301Z,59.38
2023-05-07T00:31:18.343Z,57.78
2023-05-07T00:33:44.797Z,60.47
2023-05-07T00:36:11.264Z,59.20
2023-05-07T00:38:37.736Z,51.00
2023-05-07T00:41:04.328Z,60.42
2023-05-07T00:43:30.865Z,48.28
2023-05-07T00:45:57.678Z,48.92
2023-05-07T00:48:25.476Z,53.33
2023-05-07T00:50:55.431Z,46.90
2023-05-07T00:53:22.477Z,47.80
2023-05-07T00:55:49.268Z,49.47
2023-05-07T00:58:15.958Z,49.63
2023-05-07T01:00:42.444Z,46.53
2023-05-07T01:03:11.812Z,52.83
2023-05-07T01:05:39.410Z,47.65
2023-05-07T01:08:06.829Z,53.78
2023-05-07T01:10:33.551Z,48.00
2023-05-07T01:13:01.188Z,46.45
2023-05-07T01:15:28.013Z,43.78
2023-05-07T01:17:54.602Z,45.10
2023-05-07T01:20:21.424Z,45.83
2023-05-07T01:22:48.442Z,41.25
2023-05-07T01:25:18.407Z,45.20
2023-05-07T01:27:48.028Z,41.13
2023-05-07T01:30:16.047Z,44.92
2023-05-07T01:33:02.607Z,41.70
2023-05-07T01:35:35.298Z,40.10
2023-05-07T01:38:02.295Z,37.22
2023-05-07T01:40:28.908Z,40.78
2023-05-07T01:42:58.483Z,35.83
2023-05-07T01:45:27.265Z,36.70
2023-05-07T01:47:56.270Z,32.92
2023-05-07T01:50:22.923Z,33.17
2023-05-07T01:52:51.906Z,31.83
2023-05-07T01:55:18.721Z,30.38
2023-05-07T01:57:45.303Z,26.92
2023-05-07T02:00:12.623Z,33.90
2023-05-07T02:02:39.516Z,31.58
2023-05-07T02:05:09.307Z,26.88
2023-05-07T02:07:38.013Z,28.70
2023-05-07T02:10:07.501Z,28.20
2023-05-07T02:12:34.008Z,27.75
2023-05-07T02:15:01.207Z,25.58
2023-05-07T02:17:27.680Z,27.13
2023-05-07T02:19:54.251Z,28.98
2023-05-07T02:22:20.733Z,31.05
2023-05-07T02:24:51.338Z,29.80
2023-05-07T02:27:17.988Z,28.05
2023-05-07T02:29:44.472Z,30.75
2023-05-07T02:32:11.113Z,30.45
2023-05-07T02:34:37.683Z,30.35
2023-05-07T02:37:04.170Z,29.00
2023-05-07T02:39:30.623Z,31.92
2023-05-07T02:41:57.108Z,31.10
2023-05-07T02:44:23.590Z,28.55
2023-05-07T02:46:50.067Z,29.70
2023-05-07T02:49:16.525Z,33.30
2023-05-07T02:51:43.051Z,34.03
2023-05-07T02:54:09.491Z,32.55
2023-05-07T02:56:36.013Z,32.03
2023-05-07T02:59:02.503Z,32.13
2023-05-07T03:01:29.112Z,33.47
2023-05-07T03:03:56.202Z,33.13
2023-05-07T03:06:22.816Z,32.10
2023-05-07T03:08:49.260Z,32.25
2023-05-07T03:11:15.950Z,30.70
2023-05-07T03:13:42.485Z,35.20
2023-05-07T03:16:09.033Z,37.05
2023-05-07T03:18:35.566Z,35.78
2023-05-07T03:21:02.166Z,36.50
2023-05-07T03:23:28.672Z,34.85
2023-05-07T03:25:55.137Z,35.42
2023-05-07T03:28:21.629Z,36.75
2023-05-07T03:30:48.220Z,35.53
2023-05-07T03:33:14.698Z,36.72
2023-05-07T03:35:41.280Z,34.40
2023-05-07T03:38:08.714Z,36.80
2023-05-07T03:40:35.245Z,36.25
2023-05-07T03:43:02.065Z,41.17
2023-05-07T03:45:28.548Z,35.03
2023-05-07T03:47:55.052Z,33.70
2023-05-07T03:50:21.520Z,35.35
2023-05-07T03:52:48.013Z,34.08
2023-05-07T03:55:14.463Z,31.95
2023-05-07T03:57:40.959Z,34.47
2023-05-07T04:00:11.744Z,29.33
2023-05-07T04:02:38.527Z,33.72
2023-05-07T04:05:06.308Z,32.70
2023-05-07T04:07:32.846Z,29.95
2023-05-07T04:09:59.293Z,29.65
2023-05-07T04:12:25.946Z,29.15
2023-05-07T04:14:52.416Z,28.25
2023-05-07T04:17:18.921Z,29.08
2023-05-07T04:19:46.548Z,29.75
2023-05-07T04:22:13.358Z,29.20
2023-05-07T04:24:39.842Z,30.85
2023-05-07T04:27:07.444Z,31.25
2023-05-07T04:29:33.933Z,30.40
2023-05-07T04:32:00.750Z,30.85
2023-05-07T04:34:27.246Z,31.65
2023-05-07T04:36:54.090Z,34.58
2023-05-07T04:39:20.669Z,32.63
2023-05-07T04:41:47.150Z,33.20
2023-05-07T04:44:13.686Z,34.33
2023-05-07T04:46:40.257Z,30.83
2023-05-07T04:49:06.770Z,38.33
2023-05-07T04:51:33.825Z,32.72
2023-05-07T04:54:00.340Z,31.98
2023-05-07T04:56:29.591Z,32.15
2023-05-07T04:58:56.273Z,34.67
2023-05-07T05:01:22.989Z,29.13
2023-05-07T05:03:49.581Z,31.90
2023-05-07T05:06:16.067Z,33.15
2023-05-07T05:08:42.569Z,30.27
2023-05-07T05:11:09.025Z,30.50
2023-05-07T05:13:35.548Z,29.40
2023-05-07T05:16:02.023Z,29.88
2023-05-07T05:18:28.577Z,30.42
2023-05-07T05:20:55.053Z,27.70
2023-05-07T05:23:21.605Z,29.65
2023-05-07T05:25:48.146Z,26.95
2023-05-07T05:28:14.942Z,27.52
2023-05-07T05:30:41.392Z,30.05
2023-05-07T05:33:07.992Z,32.17
2023-05-07T05:35:35.872Z,29.80
2023-05-07T05:38:02.489Z,27.95
2023-05-07T05:40:29.728Z,29.48
2023-05-07T05:42:56.291Z,31.05
2023-05-07T05:45:22.835Z,30.60
2023-05-07T05:47:49.428Z,25.75
2023-05-07T05:50:15.923Z,24.40
2023-05-07T05:52:43.038Z,26.67
2023-05-07T05:55:09.959Z,27.13
2023-05-07T05:57:36.862Z,25.88
2023-05-07T06:00:04.023Z,24.08
2023-05-07T06:02:30.962Z,26.95
2023-05-07T06:04:57.549Z,25.33
2023-05-07T06:07:24.140Z,25.48
2023-05-07T06:09:50.659Z,23.88
2023-05-07T06:12:17.114Z,27.02
2023-05-07T06:14:46.431Z,28.05
2023-05-07T06:17:12.972Z,26.75
2023-05-07T06:19:39.457Z,24.60
2023-05-07T06:22:05.939Z,25.35
2023-05-07T06:24:32.427Z,23.35
2023-05-07T06:26:59.594Z,22.00
2023-05-07T06:29:31.298Z,22.38
2023-05-07T06:31:57.794Z,24.08
2023-05-07T06:34:24.321Z,21.20
2023-05-07T06:36:50.837Z,22.25
2023-05-07T06:39:17.316Z,20.77
2023-05-07T06:41:43.848Z,20.00
2023-05-07T06:44:10.343Z,23.02
2023-05-07T06:46:36.845Z,19.70
2023-05-07T06:49:03.719Z,20.65
2023-05-07T06:51:30.278Z,21.48
2023-05-07T06:53:56.792Z,20.33
2023-05-07T06:56:23.862Z,19.05
2023-05-07T06:58:50.416Z,19.25
2023-05-07T07:01:17.063Z,19.63
2023-05-07T07:03:43.568Z,20.50
2023-05-07T07:06:10.130Z,20.02
2023-05-07T07:08:36.808Z,19.55
2023-05-07T07:11:03.359Z,18.70
2023-05-07T07:13:30.037Z,19.90
2023-05-07T07:15:56.776Z,20.25
2023-05-07T07:18:23.344Z,22.75
2023-05-07T07:20:49.961Z,22.02
2023-05-07T07:23:16.500Z,20.40
2023-05-07T07:25:45.445Z,20.60
2023-05-07T07:28:11.968Z,20.65
2023-05-07T07:30:39.188Z,21.48
2023-05-07T07:33:06.190Z,24.40
2023-05-07T07:35:33.592Z,21.45
2023-05-07T07:38:00.437Z,22.35
2023-05-07T07:40:27.095Z,21.33
2023-05-07T07:42:54.540Z,24.95
2023-05-07T07:45:21.633Z,25.90
2023-05-07T07:47:48.153Z,23.48
2023-05-07T07:50:21.283Z,25.55
2023-05-07T07:52:58.490Z,22.45
2023-05-07T07:55:28.366Z,25.65
2023-05-07T07:57:55.864Z,25.42
2023-05-07T08:00:22.773Z,24.77
2023-05-07T08:02:49.539Z,23.40
2023-05-07T08:05:16.399Z,24.83
2023-05-07T08:07:42.848Z,27.80
2023-05-07T08:10:10.093Z,23.33
2023-05-07T08:12:36.903Z,23.77
2023-05-07T08:15:03.693Z,26.98
2023-05-07T08:17:30.215Z,25.42
2023-05-07T08:19:56.707Z,23.15
2023-05-07T08:22:23.883Z,23.63
2023-05-07T08:24:50.336Z,23.88
2023-05-07T08:27:16.916Z,25.17
2023-05-07T08:29:48.489Z,25.13
2023-05-07T08:32:14.955Z,26.30
2023-05-07T08:34:41.723Z,23.10
2023-05-07T08:37:08.231Z,24.80
2023-05-07T08:39:34.683Z,25.00
2023-05-07T08:42:03.285Z,25.23
2023-05-07T08:44:34.912Z,23.92
2023-05-07T08:47:02.346Z,26.77
2023-05-07T08:49:29.843Z,25.77
2023-05-07T08:51:56.838Z,23.98
2023-05-07T08:54:23.341Z,27.38
2023-05-07T08:56:49.844Z,24.20
2023-05-07T08:59:16.381Z,28.08
2023-05-07T09:01:43.009Z,24.73
2023-05-07T09:04:10.280Z,23.80
2023-05-07T09:06:38.981Z,25.00
2023-05-07T09:09:06.459Z,25.85
2023-05-07T09:11:33.048Z,26.42
2023-05-07T09:14:02.206Z,27.80
2023-05-07T09:16:31.216Z,25.40
2023-05-07T09:19:00.969Z,28.92
2023-05-07T09:21:28.238Z,25.73
2023-05-07T09:23:56.308Z,25.65
2023-05-07T09:26:23.976Z,25.85
2023-05-07T09:28:50.500Z,23.58
2023-05-07T09:31:18.849Z,28.65
2023-05-07T09:33:47.605Z,27.77
2023-05-07T09:36:14.732Z,24.55
2023-05-07T09:38:41.429Z,26.00
2023-05-07T09:41:12.897Z,23.55
2023-05-07T09:43:40.740Z,23.58
2023-05-07T09:46:12.317Z,24.48
2023-05-07T09:48:40.898Z,26.10
2023-05-07T09:51:16.585Z,23.13
2023-05-07T09:53:44.219Z,23.05
2023-05-07T09:56:11.863Z,26.23
2023-05-07T09:58:38.976Z,25.13
2023-05-07T10:01:06.762Z,22.52
2023-05-07T10:03:37.300Z,24.45
2023-05-07T10:06:05.738Z,22.65
2023-05-07T10:08:32.674Z,25.13
2023-05-07T10:11:00.858Z,19.88
2023-05-07T10:13:28.000Z,22.70
2023-05-07T10:15:55.925Z,22.08
2023-05-07T10:18:30.813Z,21.33
2023-05-07T10:21:03.172Z,20.83
2023-05-07T10:23:34.485Z,22.30
2023-05-07T10:26:04.443Z,21.88
2023-05-07T10:28:35.850Z,19.80
2023-05-07T10:31:18.953Z,19.30
2023-05-07T10:33:48.123Z,19.88
2023-05-07T10:36:14.903Z,20.35
2023-05-07T10:38:41.896Z,20.17
2023-05-07T10:41:08.727Z,19.50
2023-05-07T10:43:43.084Z,18.60
2023-05-07T10:46:20.266Z,18.73
2023-05-07T10:49:12.193Z,19.60
2023-05-07T10:51:39.838Z,18.23
2023-05-07T10:54:12.468Z,22.98
2023-05-07T10:56:40.921Z,16.98
2023-05-07T10:59:28.106Z,16.77
2023-05-07T11:01:55.788Z,15.80
2023-05-07T11:04:28.797Z,14.45
2023-05-07T11:07:07.456Z,17.20
2023-05-07T11:09:59.765Z,14.43
2023-05-07T11:15:09.971Z,15.52
2023-05-07T11:17:57.678Z,16.27
2023-05-07T11:20:46.063Z,15.70
2023-05-07T11:23:34.513Z,13.18
2023-05-07T11:26:03.442Z,13.32
2023-05-07T11:28:31.519Z,11.20
2023-05-07T11:30:58.763Z,13.30
2023-05-07T11:33:27.960Z,13.27
2023-05-07T11:35:54.764Z,11.38
2023-05-07T11:38:21.623Z,13.57
2023-05-07T11:40:56.992Z,15.23
2023-05-07T11:43:23.590Z,12.70
2023-05-07T11:45:50.461Z,17.75
2023-05-07T11:48:17.728Z,15.52
2023-05-07T11:50:55.148Z,13.07
2023-05-07T11:53:25.980Z,13.23
2023-05-07T11:55:58.840Z,15.55
2023-05-07T11:58:26.665Z,18.20
2023-05-07T12:00:54.869Z,15.15
2023-05-07T12:03:22.093Z,15.05
2023-05-07T12:05:49.222Z,15.85
2023-05-07T12:08:16.983Z,14.57
2023-05-07T12:10:44.255Z,14.43
2023-05-07T12:13:21.510Z,15.00
2023-05-07T12:15:53.606Z,17.95
2023-05-07T12:18:21.178Z,13.60
2023-05-07T12:20:47.950Z,14.50
2023-05-07T12:23:15.440Z,14.88
2023-05-07T12:25:50.071Z,15.40
2023-05-07T12:28:18.514Z,17.23
2023-05-07T12:30:46.530Z,19.88
2023-05-07T12:33:16.820Z,15.13
2023-05-07T12:35:44.470Z,13.85
2023-05-07T12:38:18.452Z,14.63
2023-05-07T12:40:52.386Z,14.82
2023-05-07T12:43:26.126Z,14.85
2023-05-07T12:45:58.758Z,14.13
2023-05-07T12:48:27.985Z,14.15
2023-05-07T12:50:55.968Z,16.30
2023-05-07T12:53:24.669Z,17.05
2023-05-07T12:55:54.568Z,17.85
2023-05-07T12:58:29.030Z,15.57
2023-05-07T13:01:00.810Z,14.52
2023-05-07T13:03:38.977Z,15.13
2023-05-07T13:06:11.505Z,15.48
2023-05-07T13:08:46.041Z,17.88
2023-05-07T13:11:13.926Z,16.00
2023-05-07T13:13:41.805Z,16.17
2023-05-07T13:16:10.601Z,16.17
2023-05-07T13:18:41.106Z,19.45
2023-05-07T13:21:07.976Z,16.65
2023-05-07T13:23:35.058Z,16.95
2023-05-07T13:26:06.235Z,15.63
2023-05-07T13:28:38.046Z,17.98
2023-05-07T13:31:04.606Z,19.52
2023-05-07T13:33:31.153Z,20.08
2023-05-07T13:35:58.068Z,18.15
2023-05-07T13:38:25.009Z,16.25
2023-05-07T13:40:51.586Z,19.85
2023-05-07T13:43:19.720Z,18.90
2023-05-07T13:45:46.298Z,20.10
2023-05-07T13:48:12.952Z,18.58
2023-05-07T13:50:39.593Z,22.88
2023-05-07T13:53:06.151Z,19.33
2023-05-07T13:55:33.059Z,20.00
2023-05-07T13:58:01.750Z,17.77
2023-05-07T14:00:29.322Z,18.77
2023-05-07T14:02:56.867Z,18.67
2023-05-07T14:05:28.878Z,19.95
2023-05-07T14:10:22.552Z,21.08
2023-05-07T14:12:49.133Z,19.23
2023-05-07T14:15:16.969Z,22.33
2023-05-07T14:17:44.468Z,23.17
2023-05-07T14:20:13.539Z,22.40
2023-05-07T14:22:40.477Z,21.33
2023-05-07T14:25:07.785Z,21.73
2023-05-07T14:27:34.370Z,20.65
2023-05-07T14:30:00.954Z,20.08
2023-05-07T14:32:27.561Z,23.00
2023-05-07T14:34:54.040Z,19.38
2023-05-07T14:37:21.009Z,19.83
2023-05-07T14:39:49.808Z,20.05
2023-05-07T14:42:16.696Z,19.40
2023-05-07T14:44:43.274Z,21.05
2023-05-07T14:47:09.840Z,27.85
2023-05-07T14:49:37.026Z,23.60
2023-05-07T14:52:03.672Z,25.15
2023-05-07T14:54:30.190Z,21.88
2023-05-07T14:56:56.875Z,23.58
2023-05-07T14:59:25.860Z,25.20
2023-05-07T15:01:52.719Z,22.73
2023-05-07T15:04:19.803Z,20.92
2023-05-07T15:06:47.326Z,22.27
2023-05-07T15:09:16.852Z,21.10
2023-05-07T15:11:43.316Z,23.88
2023-05-07T15:14:09.872Z,20.80
2023-05-07T15:16:36.375Z,21.25
2023-05-07T15:19:02.912Z,21.02
2023-05-07T15:21:29.625Z,21.70
2023-05-07T15:23:56.387Z,20.95
2023-05-07T15:26:22.836Z,21.27
2023-05-07T15:28:49.319Z,20.35
2023-05-07T15:31:16.868Z,21.85
2023-05-07T15:33:43.383Z,21.42
2023-05-07T15:36:09.882Z,19.45
2023-05-07T15:38:36.426Z,19.70
2023-05-07T15:41:02.985Z,19.13
2023-05-07T15:43:29.515Z,17.65
2023-05-07T15:45:55.993Z,17.08
2023-05-07T15:48:22.553Z,17.45
2023-05-07T15:50:49.170Z,16.33
2023-05-07T15:53:15.793Z,18.98
2023-05-07T15:55:43.884Z,16.67
2023-05-07T15:58:10.519Z,20.27
2023-05-07T16:00:40.712Z,16.05
2023-05-07T16:03:08.168Z,16.27
2023-05-07T16:05:34.811Z,15.95
2023-05-07T16:08:01.365Z,17.58
2023-05-07T16:10:27.935Z,13.32
2023-05-07T16:12:54.583Z,14.10
2023-05-07T16:15:21.202Z,14.48
2023-05-07T16:17:53.362Z,11.82
2023-05-07T16:20:21.837Z,12.50
2023-05-07T16:22:48.560Z,12.25
2023-05-07T16:25:15.232Z,12.90
2023-05-07T16:27:41.723Z,13.98
2023-05-07T16:30:08.917Z,12.55
2023-05-07T16:32:36.226Z,13.00
2023-05-07T16:35:03.403Z,16.67
2023-05-07T16:37:30.059Z,16.15
2023-05-07T16:39:56.667Z,13.55
2023-05-07T16:42:23.144Z,15.70
2023-05-07T16:44:49.992Z,15.90
2023-05-07T16:47:16.510Z,15.98
2023-05-07T16:49:43.016Z,14.65
2023-05-07T16:52:09.581Z,16.88
2023-05-07T16:54:37.234Z,15.60
2023-05-07T16:57:03.888Z,15.98
2023-05-07T16:59:32.374Z,15.55
2023-05-07T17:01:59.507Z,15.38
2023-05-07T17:04:26.296Z,15.95
2023-05-07T17:06:53.012Z,16.10
2023-05-07T17:09:19.547Z,17.73
2023-05-07T17:11:46.205Z,12.75
2023-05-07T17:14:12.689Z,15.85
2023-05-07T17:16:39.344Z,14.93
2023-05-07T17:19:06.079Z,14.43
2023-05-07T17:21:32.952Z,13.18
2023-05-07T17:23:59.548Z,13.52
2023-05-07T17:26:26.020Z,13.70
2023-05-07T17:28:52.503Z,12.82
2023-05-07T17:31:19.027Z,12.30
2023-05-07T17:33:45.490Z,15.68
2023-05-07T17:36:12.469Z,13.35
2023-05-07T17:38:38.936Z,11.50
2023-05-07T17:41:06.434Z,12.70
2023-05-07T17:43:32.877Z,12.10
2023-05-07T17:45:59.397Z,11.00
2023-05-07T17:48:26.001Z,14.40
2023-05-07T17:50:52.519Z,13.77
2023-05-07T17:53:19.313Z,15.65
2023-05-07T17:55:45.937Z,13.05
2023-05-07T17:58:12.885Z,12.07
2023-05-07T18:00:39.628Z,13.13
2023-05-07T18:03:06.758Z,12.68
2023-05-07T18:05:36.113Z,12.77
2023-05-07T18:08:02.726Z,10.85
2023-05-07T18:10:29.283Z,11.85
2023-05-07T18:12:56.242Z,12.65
2023-05-07T18:15:22.813Z,11.85
2023-05-07T18:17:49.345Z,11.80
2023-05-07T18:20:15.985Z,13.98
2023-05-07T18:22:42.514Z,10.82
2023-05-07T18:25:09.277Z,11.05
2023-05-07T18:27:35.819Z,12.38
2023-05-07T18:30:04.924Z,12.70
2023-05-07T18:32:31.463Z,11.15
2023-05-07T18:34:57.964Z,12.05
2023-05-07T18:37:26.619Z,12.73
2023-05-07T18:39:53.295Z,10.07
2023-05-07T18:42:20.190Z,10.15
2023-05-07T18:44:46.705Z,10.63
2023-05-07T18:47:13.919Z,10.13
2023-05-07T18:49:40.509Z,11.95
2023-05-07T18:52:06.994Z,11.88
2023-05-07T18:54:33.516Z,8.90
2023-05-07T18:56:59.981Z,9.95
2023-05-07T18:59:26.489Z,9.30
2023-05-07T19:01:53.193Z,10.30
2023-05-07T19:04:20.358Z,9.63
2023-05-07T19:06:46.951Z,11.65
2023-05-07T19:09:13.474Z,10.40
2023-05-07T19:11:39.940Z,9.80
2023-05-07T19:14:06.659Z,13.07
2023-05-07T19:16:33.311Z,9.50
2023-05-07T19:18:59.904Z,11.57
2023-05-07T19:21:28.485Z,11.60
2023-05-07T19:23:57.392Z,11.88
2023-05-07T19:26:24.319Z,11.10
2023-05-07T19:29:06.517Z,9.85
2023-05-07T19:31:38.469Z,10.82
2023-05-07T19:34:05.069Z,10.38
2023-05-07T19:36:34.253Z,12.57
2023-05-07T19:39:00.778Z,10.02
2023-05-07T19:41:27.245Z,11.73
2023-05-07T19:43:53.747Z,10.15
2023-05-07T19:46:20.523Z,8.65
2023-05-07T19:48:47.125Z,8.40
2023-05-07T19:51:16.550Z,9.50
2023-05-07T19:53:44.894Z,11.10
2023-05-07T19:56:12.433Z,9.93
2023-05-07T19:58:39.471Z,11.68
2023-05-07T20:01:06.272Z,14.05
2023-05-07T20:03:33.746Z,10.00
2023-05-07T20:06:00.550Z,9.52
2023-05-07T20:08:28.049Z,11.80
2023-05-07T20:10:57.212Z,9.23
2023-05-07T20:13:23.958Z,10.00
2023-05-07T20:15:50.722Z,11.85
2023-05-07T20:18:20.760Z,12.18
2023-05-07T20:20:47.850Z,10.65
2023-05-07T20:23:17.052Z,11.25
2023-05-07T20:25:43.602Z,9.55
2023-05-07T20:28:10.519Z,12.13
2023-05-07T20:30:37.006Z,10.07
2023-05-07T20:33:04.045Z,10.57
2023-05-07T20:35:38.688Z,11.55
2023-05-07T20:38:05.214Z,10.65
2023-05-07T20:40:36.091Z,14.40
2023-05-07T20:43:02.836Z,11.95
2023-05-07T20:45:29.453Z,11.20
2023-05-07T20:47:56.238Z,12.55
2023-05-07T20:50:24.817Z,11.15
2023-05-07T20:52:51.288Z,14.35
2023-05-07T20:55:19.375Z,12.48
2023-05-07T20:57:45.938Z,13.80
2023-05-07T21:00:13.028Z,10.98
2023-05-07T21:02:39.787Z,10.50
2023-05-07T21:05:06.650Z,10.20
2023-05-07T21:07:33.137Z,12.07
2023-05-07T21:10:01.698Z,10.27
2023-05-07T21:12:28.146Z,11.25
2023-05-07T21:14:55.221Z,11.35
2023-05-07T21:17:21.700Z,13.93
2023-05-07T21:19:49.597Z,10.45
2023-05-07T21:22:16.117Z,14.57
2023-05-07T21:24:42.608Z,13.00
2023-05-07T21:27:11.798Z,11.18
2023-05-07T21:29:41.119Z,12.18
2023-05-07T21:32:07.649Z,13.30
2023-05-07T21:34:35.157Z,15.10
2023-05-07T21:37:01.675Z,11.13
2023-05-07T21:39:28.219Z,12.45
2023-05-07T21:41:56.753Z,10.10
2023-05-07T21:44:23.275Z,12.05
2023-05-07T21:46:49.838Z,12.40
2023-05-07T21:49:16.835Z,11.65
2023-05-07T21:51:43.354Z,10.90
2023-05-07T21:54:09.811Z,12.50
2023-05-07T21:56:36.332Z,12.20
2023-05-07T21:59:02.860Z,11.95
2023-05-07T22:01:29.374Z,13.10
2023-05-07T22:03:56.147Z,12.60
2023-05-07T22:06:22.888Z,14.05
2023-05-07T22:08:49.968Z,14.32
2023-05-07T22:11:23.815Z,13.10
2023-05-07T22:13:50.301Z,17.33
2023-05-07T22:16:16.841Z,13.77
2023-05-07T22:18:43.859Z,15.50
2023-05-07T22:21:10.423Z,13.82
2023-05-07T22:23:36.883Z,14.73
2023-05-07T22:26:12.991Z,13.57
2023-05-07T22:28:40.419Z,12.13
2023-05-07T22:31:07.026Z,15.70
2023-05-07T22:33:33.703Z,13.30
2023-05-07T22:36:00.242Z,12.82
2023-05-07T22:38:26.796Z,14.13
2023-05-07T22:40:56.293Z,17.77
2023-05-07T22:43:24.872Z,14.15
2023-05-07T22:45:58.199Z,15.98
2023-05-07T22:48:24.851Z,15.45
2023-05-07T22:50:51.493Z,13.93
2023-05-07T22:53:18.079Z,18.13
2023-05-07T22:55:48.306Z,16.58
2023-05-07T22:58:14.970Z,14.82
2023-05-07T23:00:41.517Z,15.65
2023-05-07T23:03:08.203Z,14.27
2023-05-07T23:05:34.940Z,18.15
2023-05-07T23:08:01.451Z,14.10
2023-05-07T23:10:27.935Z,14.93
2023-05-07T23:12:54.931Z,14.73
2023-05-07T23:15:21.669Z,16.00
2023-05-07T23:17:48.297Z,14.43
2023-05-07T23:20:15.169Z,11.68
2023-05-07T23:22:41.871Z,11.57
2023-05-07T23:25:11.887Z,13.98
2023-05-07T23:27:38.564Z,12.85
2023-05-07T23:30:05.882Z,14.93
2023-05-07T23:32:32.391Z,13.20
2023-05-07T23:34:58.905Z,14.90
2023-05-07T23:37:25.507Z,12.10
2023-05-07T23:39:55.690Z,12.35
2023-05-07T23:42:23.594Z,12.57
2023-05-07T23:44:50.196Z,12.25
2023-05-07T23:47:16.761Z,11.40
2023-05-07T23:49:43.682Z,15.68
2023-05-07T23:52:10.247Z,10.90
2023-05-07T23:54:36.769Z,10.30
2023-05-07T23:57:04.473Z,12.27
2023-05-07T23:59:31.077Z,12.73
